KART/ART METAR and TAF weather

Enter ICAO airport designator
Station Type Date Time Source
KART METAR 2018/06/25 01:56 UTC NOAA

KART 250156Z AUTO 02006KT 10SM OVC031 18/17 A2994 RMK AO2 SLP135 T01830172


Station Type Date Time Source
KART Decoded METAR 2018/06/25 01:56 UTC NOAA

WATERTOWN INTERNATIONAL AIRPORT, NY, United States (KART) 43-59N 076-02W 100M
Jun 24, 2018 - 09:56 PM EDT / 2018.06.25 0156 UTC
Wind: from the NNE (020 degrees) at 7 MPH (6 KT):0
Visibility: 10 mile(s):0
Sky conditions: overcast
Temperature: 64.9 F (18.3 C)
Dew Point: 63.0 F (17.2 C)
Relative Humidity: 93%
Pressure (altimeter): 29.94 in. Hg (1013 hPa)
ob: KART 250156Z AUTO 02006KT 10SM OVC031 18/17 A2994 RMK AO2 SLP135 T01830172
cycle: 2

Station Type Date Time Source
KART TAF 2018/06/24 21:09 UTC NOAA

TAF
AMD KART 242106Z 2421/2518 03007KT P6SM -SHRA OVC025
FM242300 VRB03KT 6SM -SHRA BR OVC030
FM250100 33004KT P6SM VCSH OVC030
FM250300 36006KT P6SM OVC040
FM250700 VRB03KT P6SM SCT040
FM251400 35009KT P6SM SKC


Example: see airport list